sensor_id;sensor_type;location;lat;lon;timestamp;P1;durP1;ratioP1;P2;durP2;ratioP2
77978;SDS011;67169;50.268;8.694;2024-03-08T00:00:43;12.77;;;7.38;;
77978;SDS011;67169;50.268;8.694;2024-03-08T00:03:10;15.52;;;6.40;;
77978;SDS011;67169;50.268;8.694;2024-03-08T00:05:38;10.43;;;6.90;;
77978;SDS011;67169;50.268;8.694;2024-03-08T00:08:05;13.60;;;7.03;;
77978;SDS011;67169;50.268;8.694;2024-03-08T00:10:34;16.50;;;7.05;;
77978;SDS011;67169;50.268;8.694;2024-03-08T00:13:01;12.02;;;6.70;;
77978;SDS011;67169;50.268;8.694;2024-03-08T00:15:29;12.18;;;6.95;;
77978;SDS011;67169;50.268;8.694;2024-03-08T00:20:23;9.98;;;5.00;;
77978;SDS011;67169;50.268;8.694;2024-03-08T00:22:51;12.88;;;6.82;;
77978;SDS011;67169;50.268;8.694;2024-03-08T00:25:18;10.13;;;6.38;;
77978;SDS011;67169;50.268;8.694;2024-03-08T00:27:45;13.70;;;6.22;;
77978;SDS011;67169;50.268;8.694;2024-03-08T00:30:14;13.93;;;7.60;;
77978;SDS011;67169;50.268;8.694;2024-03-08T00:32:41;12.55;;;7.63;;
77978;SDS011;67169;50.268;8.694;2024-03-08T00:35:07;14.30;;;7.15;;
77978;SDS011;67169;50.268;8.694;2024-03-08T00:37:34;16.30;;;6.78;;
77978;SDS011;67169;50.268;8.694;2024-03-08T00:40:02;17.30;;;6.63;;
77978;SDS011;67169;50.268;8.694;2024-03-08T00:42:29;13.55;;;7.80;;
77978;SDS011;67169;50.268;8.694;2024-03-08T00:44:56;14.65;;;6.57;;
77978;SDS011;67169;50.268;8.694;2024-03-08T00:47:23;16.92;;;8.00;;
77978;SDS011;67169;50.268;8.694;2024-03-08T00:49:49;13.95;;;7.75;;
77978;SDS011;67169;50.268;8.694;2024-03-08T00:52:16;16.02;;;6.63;;
77978;SDS011;67169;50.268;8.694;2024-03-08T00:54:43;14.00;;;6.55;;
77978;SDS011;67169;50.268;8.694;2024-03-08T00:57:11;13.15;;;6.75;;
77978;SDS011;67169;50.268;8.694;2024-03-08T00:59:37;14.80;;;6.95;;
77978;SDS011;67169;50.268;8.694;2024-03-08T01:02:04;13.55;;;7.88;;
77978;SDS011;67169;50.268;8.694;2024-03-08T01:04:31;15.35;;;6.18;;
77978;SDS011;67169;50.268;8.694;2024-03-08T01:06:58;14.00;;;7.22;;
77978;SDS011;67169;50.268;8.694;2024-03-08T01:09:25;14.50;;;6.85;;
77978;SDS011;67169;50.268;8.694;2024-03-08T01:11:52;12.57;;;5.93;;
77978;SDS011;67169;50.268;8.694;2024-03-08T01:14:21;12.82;;;6.70;;
77978;SDS011;67169;50.268;8.694;2024-03-08T01:16:48;13.18;;;6.57;;
77978;SDS011;67169;50.268;8.694;2024-03-08T01:19:15;13.77;;;6.00;;
77978;SDS011;67169;50.268;8.694;2024-03-08T01:21:41;9.80;;;7.05;;
77978;SDS011;67169;50.268;8.694;2024-03-08T01:24:08;10.75;;;5.82;;
77978;SDS011;67169;50.268;8.694;2024-03-08T01:26:34;8.82;;;5.53;;
77978;SDS011;67169;50.268;8.694;2024-03-08T01:29:01;12.07;;;5.85;;
77978;SDS011;67169;50.268;8.694;2024-03-08T01:31:29;16.90;;;8.25;;
77978;SDS011;67169;50.268;8.694;2024-03-08T01:33:56;12.73;;;7.00;;
77978;SDS011;67169;50.268;8.694;2024-03-08T01:36:22;11.93;;;6.57;;
77978;SDS011;67169;50.268;8.694;2024-03-08T01:38:49;10.25;;;6.22;;
77978;SDS011;67169;50.268;8.694;2024-03-08T01:41:16;16.35;;;7.82;;
77978;SDS011;67169;50.268;8.694;2024-03-08T01:43:43;13.27;;;7.10;;
77978;SDS011;67169;50.268;8.694;2024-03-08T01:46:10;12.07;;;6.55;;
77978;SDS011;67169;50.268;8.694;2024-03-08T01:48:39;11.18;;;6.10;;
77978;SDS011;67169;50.268;8.694;2024-03-08T01:53:33;16.25;;;7.47;;
77978;SDS011;67169;50.268;8.694;2024-03-08T01:56:00;14.55;;;7.57;;
77978;SDS011;67169;50.268;8.694;2024-03-08T01:58:29;11.50;;;7.20;;
77978;SDS011;67169;50.268;8.694;2024-03-08T02:00:58;11.50;;;6.63;;
77978;SDS011;67169;50.268;8.694;2024-03-08T02:03:25;9.63;;;6.07;;
77978;SDS011;67169;50.268;8.694;2024-03-08T02:05:54;10.90;;;6.10;;
77978;SDS011;67169;50.268;8.694;2024-03-08T02:08:20;12.57;;;7.05;;
77978;SDS011;67169;50.268;8.694;2024-03-08T02:10:47;17.83;;;6.97;;
77978;SDS011;67169;50.268;8.694;2024-03-08T02:13:14;10.20;;;6.57;;
77978;SDS011;67169;50.268;8.694;2024-03-08T02:15:50;12.07;;;6.63;;
77978;SDS011;67169;50.268;8.694;2024-03-08T02:18:17;12.30;;;7.00;;
77978;SDS011;67169;50.268;8.694;2024-03-08T02:20:46;13.25;;;7.75;;
77978;SDS011;67169;50.268;8.694;2024-03-08T02:23:13;10.35;;;6.82;;
77978;SDS011;67169;50.268;8.694;2024-03-08T02:25:40;10.90;;;6.20;;
77978;SDS011;67169;50.268;8.694;2024-03-08T02:28:08;10.90;;;6.38;;
77978;SDS011;67169;50.268;8.694;2024-03-08T02:30:36;13.68;;;7.07;;
77978;SDS011;67169;50.268;8.694;2024-03-08T02:33:03;12.88;;;6.68;;
77978;SDS011;67169;50.268;8.694;2024-03-08T02:35:30;16.17;;;7.35;;
77978;SDS011;67169;50.268;8.694;2024-03-08T02:37:58;18.50;;;7.68;;
77978;SDS011;67169;50.268;8.694;2024-03-08T02:40:24;14.10;;;6.20;;
77978;SDS011;67169;50.268;8.694;2024-03-08T02:42:51;13.25;;;8.38;;
77978;SDS011;67169;50.268;8.694;2024-03-08T02:45:17;11.80;;;6.78;;
77978;SDS011;67169;50.268;8.694;2024-03-08T02:47:44;17.08;;;6.30;;
77978;SDS011;67169;50.268;8.694;2024-03-08T02:50:10;13.75;;;7.10;;
77978;SDS011;67169;50.268;8.694;2024-03-08T02:52:41;14.25;;;7.38;;
77978;SDS011;67169;50.268;8.694;2024-03-08T02:55:09;15.30;;;7.60;;
77978;SDS011;67169;50.268;8.694;2024-03-08T02:57:40;12.00;;;6.80;;
77978;SDS011;67169;50.268;8.694;2024-03-08T03:00:07;14.57;;;7.40;;
77978;SDS011;67169;50.268;8.694;2024-03-08T03:05:01;11.48;;;5.47;;
77978;SDS011;67169;50.268;8.694;2024-03-08T03:07:30;10.82;;;6.43;;
77978;SDS011;67169;50.268;8.694;2024-03-08T03:09:58;11.77;;;6.30;;
77978;SDS011;67169;50.268;8.694;2024-03-08T03:12:26;11.63;;;7.18;;
77978;SDS011;67169;50.268;8.694;2024-03-08T03:14:53;14.20;;;6.95;;
77978;SDS011;67169;50.268;8.694;2024-03-08T03:17:19;17.08;;;6.45;;
77978;SDS011;67169;50.268;8.694;2024-03-08T03:19:46;16.13;;;7.68;;
77978;SDS011;67169;50.268;8.694;2024-03-08T03:22:12;15.60;;;7.63;;
77978;SDS011;67169;50.268;8.694;2024-03-08T03:24:40;10.88;;;6.43;;
77978;SDS011;67169;50.268;8.694;2024-03-08T03:27:07;12.27;;;6.70;;
77978;SDS011;67169;50.268;8.694;2024-03-08T03:29:38;10.18;;;5.95;;
77978;SDS011;67169;50.268;8.694;2024-03-08T03:32:04;14.30;;;6.93;;
77978;SDS011;67169;50.268;8.694;2024-03-08T03:34:32;16.33;;;7.13;;
77978;SDS011;67169;50.268;8.694;2024-03-08T03:37:01;13.57;;;7.22;;
77978;SDS011;67169;50.268;8.694;2024-03-08T03:39:27;12.77;;;8.50;;
77978;SDS011;67169;50.268;8.694;2024-03-08T03:41:56;15.48;;;7.88;;
77978;SDS011;67169;50.268;8.694;2024-03-08T03:44:23;12.80;;;6.63;;
77978;SDS011;67169;50.268;8.694;2024-03-08T03:46:51;17.70;;;7.28;;
77978;SDS011;67169;50.268;8.694;2024-03-08T03:49:17;11.30;;;6.65;;
77978;SDS011;67169;50.268;8.694;2024-03-08T03:51:44;15.50;;;6.72;;
77978;SDS011;67169;50.268;8.694;2024-03-08T03:54:10;15.02;;;6.78;;
77978;SDS011;67169;50.268;8.694;2024-03-08T03:56:37;12.20;;;7.13;;
77978;SDS011;67169;50.268;8.694;2024-03-08T03:59:04;16.15;;;7.10;;
77978;SDS011;67169;50.268;8.694;2024-03-08T04:01:31;13.90;;;6.88;;
77978;SDS011;67169;50.268;8.694;2024-03-08T04:03:59;11.93;;;7.13;;
77978;SDS011;67169;50.268;8.694;2024-03-08T04:06:26;12.63;;;7.80;;
77978;SDS011;67169;50.268;8.694;2024-03-08T04:08:52;18.60;;;8.52;;
77978;SDS011;67169;50.268;8.694;2024-03-08T04:11:18;12.88;;;6.80;;
77978;SDS011;67169;50.268;8.694;2024-03-08T04:13:45;15.98;;;7.07;;
77978;SDS011;67169;50.268;8.694;2024-03-08T04:16:13;13.35;;;7.28;;
77978;SDS011;67169;50.268;8.694;2024-03-08T04:18:39;15.93;;;7.95;;
77978;SDS011;67169;50.268;8.694;2024-03-08T04:21:07;17.92;;;8.48;;
77978;SDS011;67169;50.268;8.694;2024-03-08T04:23:34;14.45;;;7.63;;
77978;SDS011;67169;50.268;8.694;2024-03-08T04:26:01;18.85;;;8.48;;
77978;SDS011;67169;50.268;8.694;2024-03-08T04:28:28;18.95;;;9.80;;
77978;SDS011;67169;50.268;8.694;2024-03-08T04:30:54;17.63;;;8.75;;
77978;SDS011;67169;50.268;8.694;2024-03-08T04:33:21;18.00;;;8.38;;
77978;SDS011;67169;50.268;8.694;2024-03-08T04:35:48;13.00;;;7.88;;
77978;SDS011;67169;50.268;8.694;2024-03-08T04:38:16;15.48;;;7.90;;
77978;SDS011;67169;50.268;8.694;2024-03-08T04:40:43;11.65;;;6.93;;
77978;SDS011;67169;50.268;8.694;2024-03-08T04:43:09;14.93;;;6.60;;
77978;SDS011;67169;50.268;8.694;2024-03-08T04:45:36;18.85;;;7.82;;
77978;SDS011;67169;50.268;8.694;2024-03-08T04:48:02;23.27;;;7.95;;
77978;SDS011;67169;50.268;8.694;2024-03-08T04:50:29;14.30;;;6.95;;
77978;SDS011;67169;50.268;8.694;2024-03-08T04:52:56;16.10;;;7.38;;
77978;SDS011;67169;50.268;8.694;2024-03-08T04:55:23;17.48;;;8.35;;
77978;SDS011;67169;50.268;8.694;2024-03-08T04:57:50;17.08;;;7.15;;
77978;SDS011;67169;50.268;8.694;2024-03-08T05:00:18;14.10;;;8.10;;
77978;SDS011;67169;50.268;8.694;2024-03-08T05:02:45;12.63;;;6.03;;
77978;SDS011;67169;50.268;8.694;2024-03-08T05:05:12;15.30;;;7.35;;
77978;SDS011;67169;50.268;8.694;2024-03-08T05:07:38;15.95;;;7.50;;
77978;SDS011;67169;50.268;8.694;2024-03-08T05:10:05;13.10;;;7.07;;
77978;SDS011;67169;50.268;8.694;2024-03-08T05:12:34;14.88;;;6.68;;
77978;SDS011;67169;50.268;8.694;2024-03-08T05:15:01;18.58;;;7.95;;
77978;SDS011;67169;50.268;8.694;2024-03-08T05:17:27;18.08;;;8.15;;
77978;SDS011;67169;50.268;8.694;2024-03-08T05:19:55;13.15;;;7.03;;
77978;SDS011;67169;50.268;8.694;2024-03-08T05:22:21;15.35;;;8.05;;
77978;SDS011;67169;50.268;8.694;2024-03-08T05:24:48;15.10;;;6.90;;
77978;SDS011;67169;50.268;8.694;2024-03-08T05:27:15;13.77;;;7.32;;
77978;SDS011;67169;50.268;8.694;2024-03-08T05:29:43;12.60;;;7.43;;
77978;SDS011;67169;50.268;8.694;2024-03-08T05:32:11;20.38;;;8.80;;
77978;SDS011;67169;50.268;8.694;2024-03-08T05:34:37;18.10;;;7.97;;
77978;SDS011;67169;50.268;8.694;2024-03-08T05:37:04;13.25;;;7.45;;
77978;SDS011;67169;50.268;8.694;2024-03-08T05:39:32;15.07;;;6.82;;
77978;SDS011;67169;50.268;8.694;2024-03-08T05:41:59;14.18;;;7.72;;
77978;SDS011;67169;50.268;8.694;2024-03-08T05:44:25;14.35;;;7.65;;
77978;SDS011;67169;50.268;8.694;2024-03-08T05:46:55;16.08;;;8.25;;
77978;SDS011;67169;50.268;8.694;2024-03-08T05:49:21;12.88;;;7.15;;
77978;SDS011;67169;50.268;8.694;2024-03-08T05:51:50;11.65;;;7.63;;
77978;SDS011;67169;50.268;8.694;2024-03-08T05:54:16;18.48;;;7.00;;
77978;SDS011;67169;50.268;8.694;2024-03-08T05:56:43;16.15;;;8.63;;
77978;SDS011;67169;50.268;8.694;2024-03-08T05:59:09;14.32;;;8.57;;
77978;SDS011;67169;50.268;8.694;2024-03-08T06:01:36;17.13;;;8.30;;
77978;SDS011;67169;50.268;8.694;2024-03-08T06:04:04;13.23;;;7.45;;
77978;SDS011;67169;50.268;8.694;2024-03-08T06:06:31;15.18;;;7.35;;
77978;SDS011;67169;50.268;8.694;2024-03-08T06:08:57;13.27;;;7.65;;
77978;SDS011;67169;50.268;8.694;2024-03-08T06:11:24;17.40;;;8.00;;
77978;SDS011;67169;50.268;8.694;2024-03-08T06:13:53;14.40;;;7.18;;
77978;SDS011;67169;50.268;8.694;2024-03-08T06:16:24;18.05;;;7.15;;
77978;SDS011;67169;50.268;8.694;2024-03-08T06:18:54;12.98;;;7.18;;
77978;SDS011;67169;50.268;8.694;2024-03-08T06:21:23;20.60;;;7.50;;
77978;SDS011;67169;50.268;8.694;2024-03-08T06:23:52;16.33;;;8.50;;
77978;SDS011;67169;50.268;8.694;2024-03-08T06:26:19;15.90;;;8.43;;
77978;SDS011;67169;50.268;8.694;2024-03-08T06:28:46;18.88;;;9.55;;
77978;SDS011;67169;50.268;8.694;2024-03-08T06:31:13;20.52;;;7.22;;
77978;SDS011;67169;50.268;8.694;2024-03-08T06:33:40;15.25;;;10.00;;
77978;SDS011;67169;50.268;8.694;2024-03-08T06:36:08;13.50;;;7.60;;
77978;SDS011;67169;50.268;8.694;2024-03-08T06:38:38;18.73;;;9.20;;
77978;SDS011;67169;50.268;8.694;2024-03-08T06:41:07;19.20;;;8.73;;
77978;SDS011;67169;50.268;8.694;2024-03-08T06:43:34;14.38;;;8.13;;
77978;SDS011;67169;50.268;8.694;2024-03-08T06:46:00;14.38;;;7.43;;
77978;SDS011;67169;50.268;8.694;2024-03-08T06:48:28;15.27;;;8.52;;
77978;SDS011;67169;50.268;8.694;2024-03-08T06:50:55;14.60;;;9.35;;
77978;SDS011;67169;50.268;8.694;2024-03-08T06:53:21;19.80;;;8.88;;
77978;SDS011;67169;50.268;8.694;2024-03-08T06:55:50;14.55;;;7.97;;
77978;SDS011;67169;50.268;8.694;2024-03-08T06:58:16;14.90;;;8.45;;
77978;SDS011;67169;50.268;8.694;2024-03-08T07:00:43;14.93;;;7.78;;
77978;SDS011;67169;50.268;8.694;2024-03-08T07:03:10;17.33;;;7.78;;
77978;SDS011;67169;50.268;8.694;2024-03-08T07:05:42;16.70;;;7.63;;
77978;SDS011;67169;50.268;8.694;2024-03-08T07:08:08;15.23;;;7.13;;
77978;SDS011;67169;50.268;8.694;2024-03-08T07:10:35;17.73;;;8.85;;
77978;SDS011;67169;50.268;8.694;2024-03-08T07:13:03;16.85;;;7.68;;
77978;SDS011;67169;50.268;8.694;2024-03-08T07:15:30;18.70;;;8.93;;
77978;SDS011;67169;50.268;8.694;2024-03-08T07:17:57;11.30;;;7.90;;
77978;SDS011;67169;50.268;8.694;2024-03-08T07:20:24;15.50;;;8.35;;
77978;SDS011;67169;50.268;8.694;2024-03-08T07:22:51;16.17;;;6.82;;
77978;SDS011;67169;50.268;8.694;2024-03-08T07:25:17;14.27;;;8.65;;
77978;SDS011;67169;50.268;8.694;2024-03-08T07:27:46;14.45;;;7.53;;
77978;SDS011;67169;50.268;8.694;2024-03-08T07:30:15;15.73;;;8.50;;
77978;SDS011;67169;50.268;8.694;2024-03-08T07:33:03;18.73;;;8.07;;
77978;SDS011;67169;50.268;8.694;2024-03-08T07:35:32;16.98;;;8.40;;
77978;SDS011;67169;50.268;8.694;2024-03-08T07:37:58;18.02;;;9.82;;
77978;SDS011;67169;50.268;8.694;2024-03-08T07:40:25;15.48;;;8.15;;
77978;SDS011;67169;50.268;8.694;2024-03-08T07:42:52;14.27;;;7.90;;
77978;SDS011;67169;50.268;8.694;2024-03-08T07:45:20;14.32;;;6.85;;
77978;SDS011;67169;50.268;8.694;2024-03-08T07:47:47;12.70;;;7.35;;
77978;SDS011;67169;50.268;8.694;2024-03-08T07:50:14;15.77;;;8.70;;
77978;SDS011;67169;50.268;8.694;2024-03-08T07:52:41;14.30;;;7.63;;
77978;SDS011;67169;50.268;8.694;2024-03-08T07:55:08;16.27;;;8.13;;
77978;SDS011;67169;50.268;8.694;2024-03-08T07:57:36;16.73;;;8.20;;
77978;SDS011;67169;50.268;8.694;2024-03-08T08:00:04;15.85;;;7.50;;
77978;SDS011;67169;50.268;8.694;2024-03-08T08:02:34;16.02;;;7.95;;
77978;SDS011;67169;50.268;8.694;2024-03-08T08:05:01;13.00;;;7.13;;
77978;SDS011;67169;50.268;8.694;2024-03-08T08:07:28;15.07;;;7.15;;
77978;SDS011;67169;50.268;8.694;2024-03-08T08:09:55;15.48;;;7.95;;
77978;SDS011;67169;50.268;8.694;2024-03-08T08:12:22;11.65;;;6.50;;
77978;SDS011;67169;50.268;8.694;2024-03-08T08:14:49;17.00;;;7.80;;
77978;SDS011;67169;50.268;8.694;2024-03-08T08:17:15;17.58;;;7.55;;
77978;SDS011;67169;50.268;8.694;2024-03-08T08:19:43;13.65;;;7.32;;
77978;SDS011;67169;50.268;8.694;2024-03-08T08:22:09;15.70;;;7.60;;
77978;SDS011;67169;50.268;8.694;2024-03-08T08:24:36;15.45;;;9.15;;
77978;SDS011;67169;50.268;8.694;2024-03-08T08:27:03;17.83;;;8.57;;
77978;SDS011;67169;50.268;8.694;2024-03-08T08:29:29;15.05;;;8.10;;
77978;SDS011;67169;50.268;8.694;2024-03-08T08:31:57;13.00;;;7.43;;
77978;SDS011;67169;50.268;8.694;2024-03-08T08:36:52;21.45;;;9.82;;
77978;SDS011;67169;50.268;8.694;2024-03-08T08:39:19;13.88;;;6.57;;
77978;SDS011;67169;50.268;8.694;2024-03-08T08:41:47;12.88;;;6.82;;
77978;SDS011;67169;50.268;8.694;2024-03-08T08:44:14;9.90;;;6.50;;
77978;SDS011;67169;50.268;8.694;2024-03-08T08:46:40;13.82;;;7.72;;
77978;SDS011;67169;50.268;8.694;2024-03-08T08:49:07;12.48;;;7.32;;
77978;SDS011;67169;50.268;8.694;2024-03-08T08:51:35;11.73;;;7.38;;
77978;SDS011;67169;50.268;8.694;2024-03-08T08:54:03;13.30;;;6.95;;
77978;SDS011;67169;50.268;8.694;2024-03-08T08:56:31;14.57;;;8.35;;
77978;SDS011;67169;50.268;8.694;2024-03-08T08:58:58;12.48;;;7.35;;
77978;SDS011;67169;50.268;8.694;2024-03-08T09:01:24;16.58;;;7.57;;
77978;SDS011;67169;50.268;8.694;2024-03-08T09:03:51;12.98;;;6.78;;
77978;SDS011;67169;50.268;8.694;2024-03-08T09:06:17;15.52;;;8.75;;
77978;SDS011;67169;50.268;8.694;2024-03-08T09:08:43;13.07;;;8.20;;
77978;SDS011;67169;50.268;8.694;2024-03-08T09:11:12;12.88;;;7.78;;
77978;SDS011;67169;50.268;8.694;2024-03-08T09:13:40;15.45;;;8.27;;
77978;SDS011;67169;50.268;8.694;2024-03-08T09:16:06;11.10;;;7.47;;
77978;SDS011;67169;50.268;8.694;2024-03-08T09:18:35;15.32;;;8.00;;
77978;SDS011;67169;50.268;8.694;2024-03-08T09:21:02;13.40;;;7.45;;
77978;SDS011;67169;50.268;8.694;2024-03-08T09:23:30;14.27;;;7.45;;
77978;SDS011;67169;50.268;8.694;2024-03-08T09:25:56;12.45;;;7.65;;
77978;SDS011;67169;50.268;8.694;2024-03-08T09:28:24;11.27;;;5.88;;
77978;SDS011;67169;50.268;8.694;2024-03-08T09:30:52;11.95;;;5.78;;
77978;SDS011;67169;50.268;8.694;2024-03-08T09:33:19;13.68;;;7.95;;
77978;SDS011;67169;50.268;8.694;2024-03-08T09:35:47;10.55;;;6.93;;
77978;SDS011;67169;50.268;8.694;2024-03-08T09:38:13;15.45;;;7.32;;
77978;SDS011;67169;50.268;8.694;2024-03-08T09:40:40;14.10;;;7.45;;
77978;SDS011;67169;50.268;8.694;2024-03-08T09:43:07;12.75;;;6.82;;
77978;SDS011;67169;50.268;8.694;2024-03-08T09:45:38;14.02;;;7.35;;
77978;SDS011;67169;50.268;8.694;2024-03-08T09:48:07;13.80;;;6.28;;
77978;SDS011;67169;50.268;8.694;2024-03-08T09:50:38;11.07;;;7.07;;
77978;SDS011;67169;50.268;8.694;2024-03-08T09:53:06;16.00;;;6.25;;
77978;SDS011;67169;50.268;8.694;2024-03-08T09:55:34;11.30;;;6.07;;
77978;SDS011;67169;50.268;8.694;2024-03-08T09:58:01;13.98;;;6.65;;
77978;SDS011;67169;50.268;8.694;2024-03-08T10:00:57;14.93;;;6.65;;
77978;SDS011;67169;50.268;8.694;2024-03-08T10:03:23;12.65;;;6.82;;
77978;SDS011;67169;50.268;8.694;2024-03-08T10:05:51;11.52;;;6.57;;
77978;SDS011;67169;50.268;8.694;2024-03-08T10:08:18;11.02;;;6.40;;
77978;SDS011;67169;50.268;8.694;2024-03-08T10:10:45;10.75;;;5.90;;
77978;SDS011;67169;50.268;8.694;2024-03-08T10:13:11;9.55;;;5.63;;
77978;SDS011;67169;50.268;8.694;2024-03-08T10:15:41;11.90;;;6.20;;
77978;SDS011;67169;50.268;8.694;2024-03-08T10:18:10;13.93;;;7.05;;
77978;SDS011;67169;50.268;8.694;2024-03-08T10:20:36;12.70;;;5.78;;
77978;SDS011;67169;50.268;8.694;2024-03-08T10:23:03;12.63;;;6.65;;
77978;SDS011;67169;50.268;8.694;2024-03-08T10:25:30;9.32;;;5.70;;
77978;SDS011;67169;50.268;8.694;2024-03-08T10:27:57;9.93;;;6.03;;
77978;SDS011;67169;50.268;8.694;2024-03-08T10:30:24;10.02;;;5.40;;
77978;SDS011;67169;50.268;8.694;2024-03-08T10:32:50;11.57;;;6.50;;
77978;SDS011;67169;50.268;8.694;2024-03-08T10:35:20;11.27;;;6.20;;
77978;SDS011;67169;50.268;8.694;2024-03-08T10:37:48;10.60;;;5.97;;
77978;SDS011;67169;50.268;8.694;2024-03-08T10:40:23;13.00;;;6.97;;
77978;SDS011;67169;50.268;8.694;2024-03-08T10:42:51;8.80;;;5.57;;
77978;SDS011;67169;50.268;8.694;2024-03-08T10:45:21;9.65;;;5.40;;
77978;SDS011;67169;50.268;8.694;2024-03-08T10:47:59;10.20;;;5.50;;
77978;SDS011;67169;50.268;8.694;2024-03-08T10:50:42;10.55;;;5.47;;
77978;SDS011;67169;50.268;8.694;2024-03-08T10:53:10;11.73;;;6.18;;
77978;SDS011;67169;50.268;8.694;2024-03-08T10:55:39;9.57;;;5.15;;
77978;SDS011;67169;50.268;8.694;2024-03-08T10:58:10;8.68;;;4.95;;
77978;SDS011;67169;50.268;8.694;2024-03-08T11:00:36;6.80;;;4.22;;
77978;SDS011;67169;50.268;8.694;2024-03-08T11:03:03;6.70;;;4.63;;
77978;SDS011;67169;50.268;8.694;2024-03-08T11:05:36;8.45;;;4.80;;
77978;SDS011;67169;50.268;8.694;2024-03-08T11:08:16;12.45;;;5.40;;
77978;SDS011;67169;50.268;8.694;2024-03-08T11:10:46;10.48;;;5.20;;
77978;SDS011;67169;50.268;8.694;2024-03-08T11:15:58;7.80;;;4.88;;
77978;SDS011;67169;50.268;8.694;2024-03-08T11:18:25;9.82;;;5.05;;
77978;SDS011;67169;50.268;8.694;2024-03-08T11:21:02;7.80;;;5.15;;
77978;SDS011;67169;50.268;8.694;2024-03-08T11:23:35;8.73;;;5.03;;
77978;SDS011;67169;50.268;8.694;2024-03-08T11:26:01;8.30;;;5.07;;
77978;SDS011;67169;50.268;8.694;2024-03-08T11:28:32;8.80;;;4.90;;
77978;SDS011;67169;50.268;8.694;2024-03-08T11:33:48;9.13;;;5.43;;
77978;SDS011;67169;50.268;8.694;2024-03-08T11:36:19;7.57;;;4.55;;
77978;SDS011;67169;50.268;8.694;2024-03-08T11:38:48;9.00;;;4.95;;
77978;SDS011;67169;50.268;8.694;2024-03-08T11:41:16;9.80;;;5.50;;
77978;SDS011;67169;50.268;8.694;2024-03-08T11:43:44;7.40;;;4.47;;
77978;SDS011;67169;50.268;8.694;2024-03-08T11:46:11;8.85;;;5.30;;
77978;SDS011;67169;50.268;8.694;2024-03-08T11:48:39;9.40;;;5.15;;
77978;SDS011;67169;50.268;8.694;2024-03-08T11:51:06;8.20;;;4.85;;
77978;SDS011;67169;50.268;8.694;2024-03-08T11:53:33;10.07;;;5.18;;
77978;SDS011;67169;50.268;8.694;2024-03-08T11:56:07;9.57;;;4.93;;
77978;SDS011;67169;50.268;8.694;2024-03-08T11:58:34;8.02;;;5.43;;
77978;SDS011;67169;50.268;8.694;2024-03-08T12:01:02;9.18;;;5.53;;
77978;SDS011;67169;50.268;8.694;2024-03-08T12:03:30;8.82;;;5.60;;
77978;SDS011;67169;50.268;8.694;2024-03-08T12:05:58;9.65;;;5.18;;
77978;SDS011;67169;50.268;8.694;2024-03-08T12:08:26;7.50;;;4.50;;
77978;SDS011;67169;50.268;8.694;2024-03-08T12:10:53;9.50;;;4.93;;
77978;SDS011;67169;50.268;8.694;2024-03-08T12:13:25;7.47;;;5.00;;
77978;SDS011;67169;50.268;8.694;2024-03-08T12:15:54;8.85;;;5.88;;
77978;SDS011;67169;50.268;8.694;2024-03-08T12:18:23;11.35;;;5.93;;
77978;SDS011;67169;50.268;8.694;2024-03-08T12:20:50;8.75;;;5.28;;
77978;SDS011;67169;50.268;8.694;2024-03-08T12:23:16;11.43;;;6.00;;
77978;SDS011;67169;50.268;8.694;2024-03-08T12:25:43;10.75;;;5.18;;
77978;SDS011;67169;50.268;8.694;2024-03-08T12:28:10;11.50;;;5.60;;
77978;SDS011;67169;50.268;8.694;2024-03-08T12:30:45;10.30;;;6.13;;
77978;SDS011;67169;50.268;8.694;2024-03-08T12:33:13;10.50;;;5.93;;
77978;SDS011;67169;50.268;8.694;2024-03-08T12:35:40;7.68;;;4.82;;
77978;SDS011;67169;50.268;8.694;2024-03-08T12:38:07;8.32;;;4.85;;
77978;SDS011;67169;50.268;8.694;2024-03-08T12:40:33;7.72;;;4.57;;
77978;SDS011;67169;50.268;8.694;2024-03-08T12:43:05;9.10;;;5.32;;
77978;SDS011;67169;50.268;8.694;2024-03-08T12:45:32;9.80;;;4.80;;
77978;SDS011;67169;50.268;8.694;2024-03-08T12:48:00;10.40;;;5.85;;
77978;SDS011;67169;50.268;8.694;2024-03-08T12:50:28;8.73;;;4.93;;
77978;SDS011;67169;50.268;8.694;2024-03-08T12:52:55;9.75;;;5.43;;
77978;SDS011;67169;50.268;8.694;2024-03-08T12:55:22;11.07;;;5.60;;
77978;SDS011;67169;50.268;8.694;2024-03-08T12:57:48;8.50;;;5.13;;
77978;SDS011;67169;50.268;8.694;2024-03-08T13:00:18;8.20;;;5.07;;
77978;SDS011;67169;50.268;8.694;2024-03-08T13:02:45;10.50;;;5.68;;
77978;SDS011;67169;50.268;8.694;2024-03-08T13:05:13;10.20;;;5.30;;
77978;SDS011;67169;50.268;8.694;2024-03-08T13:07:40;9.48;;;5.68;;
77978;SDS011;67169;50.268;8.694;2024-03-08T13:10:11;11.20;;;5.55;;
77978;SDS011;67169;50.268;8.694;2024-03-08T13:12:39;10.52;;;6.57;;
77978;SDS011;67169;50.268;8.694;2024-03-08T13:15:07;11.57;;;5.85;;
77978;SDS011;67169;50.268;8.694;2024-03-08T13:17:36;9.15;;;5.38;;
77978;SDS011;67169;50.268;8.694;2024-03-08T13:20:05;11.77;;;5.80;;
77978;SDS011;67169;50.268;8.694;2024-03-08T13:22:35;10.45;;;5.85;;
77978;SDS011;67169;50.268;8.694;2024-03-08T13:25:02;12.10;;;5.75;;
77978;SDS011;67169;50.268;8.694;2024-03-08T13:27:30;11.70;;;6.13;;
77978;SDS011;67169;50.268;8.694;2024-03-08T13:29:56;12.50;;;5.80;;
77978;SDS011;67169;50.268;8.694;2024-03-08T13:32:23;11.35;;;6.88;;
77978;SDS011;67169;50.268;8.694;2024-03-08T13:34:50;10.88;;;5.78;;
77978;SDS011;67169;50.268;8.694;2024-03-08T13:37:17;10.65;;;6.43;;
77978;SDS011;67169;50.268;8.694;2024-03-08T13:39:46;10.80;;;5.80;;
77978;SDS011;67169;50.268;8.694;2024-03-08T13:42:12;10.18;;;6.38;;
77978;SDS011;67169;50.268;8.694;2024-03-08T13:44:43;12.93;;;6.07;;
77978;SDS011;67169;50.268;8.694;2024-03-08T13:47:13;10.90;;;6.43;;
77978;SDS011;67169;50.268;8.694;2024-03-08T13:49:43;9.73;;;5.50;;
77978;SDS011;67169;50.268;8.694;2024-03-08T13:54:41;10.07;;;5.78;;
77978;SDS011;67169;50.268;8.694;2024-03-08T13:57:09;9.98;;;5.50;;
77978;SDS011;67169;50.268;8.694;2024-03-08T13:59:36;9.27;;;5.05;;
77978;SDS011;67169;50.268;8.694;2024-03-08T14:02:03;10.23;;;6.38;;
77978;SDS011;67169;50.268;8.694;2024-03-08T14:04:30;10.45;;;6.50;;
77978;SDS011;67169;50.268;8.694;2024-03-08T14:06:57;13.75;;;7.15;;
77978;SDS011;67169;50.268;8.694;2024-03-08T14:09:28;12.65;;;6.53;;
77978;SDS011;67169;50.268;8.694;2024-03-08T14:11:55;12.90;;;7.10;;
77978;SDS011;67169;50.268;8.694;2024-03-08T14:16:51;10.73;;;5.13;;
77978;SDS011;67169;50.268;8.694;2024-03-08T14:19:20;13.27;;;7.00;;
77978;SDS011;67169;50.268;8.694;2024-03-08T14:21:47;8.80;;;5.75;;
77978;SDS011;67169;50.268;8.694;2024-03-08T14:24:14;13.32;;;6.55;;
77978;SDS011;67169;50.268;8.694;2024-03-08T14:26:41;9.55;;;5.97;;
77978;SDS011;67169;50.268;8.694;2024-03-08T14:29:08;11.50;;;6.55;;
77978;SDS011;67169;50.268;8.694;2024-03-08T14:31:37;11.07;;;6.47;;
77978;SDS011;67169;50.268;8.694;2024-03-08T14:34:05;12.40;;;6.28;;
77978;SDS011;67169;50.268;8.694;2024-03-08T14:36:32;10.77;;;5.55;;
77978;SDS011;67169;50.268;8.694;2024-03-08T14:38:58;12.23;;;6.13;;
77978;SDS011;67169;50.268;8.694;2024-03-08T14:41:25;11.02;;;6.40;;
77978;SDS011;67169;50.268;8.694;2024-03-08T14:43:52;12.48;;;6.25;;
77978;SDS011;67169;50.268;8.694;2024-03-08T14:46:19;10.00;;;6.40;;
77978;SDS011;67169;50.268;8.694;2024-03-08T14:48:49;11.93;;;6.22;;
77978;SDS011;67169;50.268;8.694;2024-03-08T14:51:17;9.93;;;5.65;;
77978;SDS011;67169;50.268;8.694;2024-03-08T14:53:46;10.52;;;5.05;;
77978;SDS011;67169;50.268;8.694;2024-03-08T14:56:14;11.07;;;5.22;;
77978;SDS011;67169;50.268;8.694;2024-03-08T14:58:42;12.38;;;5.93;;